Ebenezer, Pennsylvania
Current Conditions -  °F | °C
As of 1:58 PM on Friday 24 Oct 2014 (Local Time) from KMUI Reporting Station
Clear Clear  
Wind Chill: 66°   Ceiling: Unl
Heat Index: 66°   Visibility: 10mi
Dew Point: 43°   Wind: 8mph
Humidity: 43%   Direction: 310°NW
Pressure: 29.87"   Gusts: 25mph
Location:  40.2957°N, 76.4189°W
Report Text: KMUI 241758Z AUTO 31007G22KT 280V350 10SM CLR 19/06 A2987 RMK AO2 SLP117 57018
Loading
Personal Weather Stations






























Interactive Weather Map New forecast layout! Learn more

10-Day Weather Forecast

Advertisements
Track Severe Weather on mobile